createdAt,value
2018-12-06T15:57:13.309Z,99.90
2018-12-06T15:59:39.843Z,99.90
2018-12-06T16:02:06.376Z,99.90
2018-12-06T16:04:33.230Z,99.90
2018-12-06T16:06:59.755Z,99.90
2018-12-06T16:09:26.187Z,99.90
2018-12-06T16:11:52.830Z,99.90
2018-12-06T16:14:19.368Z,99.90
2018-12-06T16:16:47.969Z,99.90
2018-12-06T16:19:14.590Z,99.90
2018-12-06T16:21:41.371Z,99.90
2018-12-06T16:24:15.034Z,99.90
2018-12-06T16:26:41.572Z,99.90
2018-12-06T16:29:15.783Z,99.90
2018-12-06T16:31:42.319Z,99.90
2018-12-06T16:34:09.470Z,99.90
2018-12-06T16:36:36.005Z,99.90
2018-12-06T16:39:10.900Z,99.90
2018-12-06T16:41:37.689Z,99.90
2018-12-06T16:44:04.523Z,99.90
2018-12-06T16:46:31.059Z,99.90
2018-12-06T16:48:57.596Z,99.90
2018-12-06T16:51:24.132Z,99.90
2018-12-06T16:53:50.667Z,99.90
2018-12-06T16:56:17.214Z,99.90
2018-12-06T16:58:43.741Z,99.90
2018-12-06T17:01:10.276Z,99.90
2018-12-06T17:03:43.829Z,99.90
2018-12-06T17:06:10.417Z,99.90
2018-12-06T17:08:36.950Z,99.90
2018-12-06T17:11:03.796Z,99.90
2018-12-06T17:13:30.329Z,99.90
2018-12-06T17:15:56.865Z,99.90
2018-12-06T17:18:23.403Z,99.90
2018-12-06T17:20:49.938Z,99.90
2018-12-06T17:23:16.474Z,99.90
2018-12-06T17:25:43.932Z,99.90
2018-12-06T17:28:10.452Z,99.90
2018-12-06T17:30:37.005Z,99.90
2018-12-06T17:33:03.545Z,99.90
2018-12-06T17:35:30.385Z,99.90
2018-12-06T17:37:56.922Z,99.90
2018-12-06T17:40:23.455Z,99.90
2018-12-06T17:42:49.991Z,99.90
2018-12-06T17:45:16.835Z,99.90
2018-12-06T17:47:43.678Z,99.90
2018-12-06T17:50:10.214Z,99.90
2018-12-06T17:52:36.751Z,99.90
2018-12-06T17:55:04.516Z,99.90
2018-12-06T17:57:31.061Z,99.90
2018-12-06T17:59:57.780Z,99.90
2018-12-06T18:02:24.434Z,99.90
2018-12-06T18:04:50.970Z,99.90
2018-12-06T18:07:17.505Z,99.90
2018-12-06T18:09:44.041Z,99.90
2018-12-06T18:12:10.881Z,98.30
2018-12-06T18:14:37.418Z,94.60
2018-12-06T18:17:04.261Z,93.90
2018-12-06T18:19:31.103Z,94.40
2018-12-06T18:21:57.641Z,92.10
2018-12-06T18:24:24.191Z,92.00
2018-12-06T18:26:50.711Z,94.30
2018-12-06T18:29:17.255Z,93.20
2018-12-06T18:31:43.785Z,92.70
2018-12-06T18:34:10.319Z,96.30
2018-12-06T18:36:36.856Z,98.00
2018-12-06T18:39:05.542Z,99.90
2018-12-06T18:41:32.080Z,99.90
2018-12-06T18:43:58.616Z,99.90
2018-12-06T18:46:25.150Z,99.90
2018-12-06T18:48:51.994Z,99.90
2018-12-06T18:51:19.147Z,99.90
2018-12-06T18:53:45.679Z,99.90
2018-12-06T18:56:13.139Z,99.90
2018-12-06T18:58:39.680Z,99.90
2018-12-06T19:01:06.517Z,99.90
2018-12-06T19:03:33.053Z,99.90
2018-12-06T19:05:59.589Z,99.90
2018-12-06T19:08:26.126Z,99.90
2018-12-06T19:10:52.662Z,99.90
2018-12-06T19:13:26.263Z,99.90
2018-12-06T19:15:52.800Z,99.90
2018-12-06T19:18:19.338Z,99.90
2018-12-06T19:20:45.870Z,99.90
2018-12-06T19:23:12.408Z,99.90
2018-12-06T19:25:39.251Z,99.90
2018-12-06T19:28:05.787Z,99.90
2018-12-06T19:30:32.323Z,99.90
2018-12-06T19:33:03.164Z,99.90
2018-12-06T19:35:27.546Z,99.90
2018-12-06T19:37:54.388Z,99.90
2018-12-06T19:40:20.929Z,99.90
2018-12-06T19:42:47.471Z,99.90
2018-12-06T19:45:13.997Z,99.90
2018-12-06T19:47:41.565Z,99.90
2018-12-06T19:50:08.301Z,99.90
2018-12-06T19:52:34.833Z,99.90
2018-12-06T19:55:01.251Z,99.90
2018-12-06T19:57:27.907Z,99.90
2018-12-06T19:59:54.443Z,99.90
2018-12-06T20:02:20.978Z,99.90
2018-12-06T20:04:47.515Z,99.90
2018-12-06T20:07:13.925Z,99.90
2018-12-06T20:09:47.653Z,99.90
2018-12-06T20:12:14.198Z,99.90
2018-12-06T20:14:40.725Z,99.90
2018-12-06T20:17:07.578Z,99.90
2018-12-06T20:19:34.283Z,99.90
2018-12-06T20:22:00.947Z,99.90
2018-12-06T20:24:27.484Z,99.90
2018-12-06T20:26:54.021Z,99.90
2018-12-06T20:29:20.556Z,99.90
2018-12-06T20:31:47.094Z,99.90
2018-12-06T20:34:13.628Z,99.90
2018-12-06T20:36:40.471Z,99.90
2018-12-06T20:39:07.006Z,99.90
2018-12-06T20:41:33.545Z,99.90
2018-12-06T20:44:00.079Z,99.90
2018-12-06T20:46:26.622Z,99.90
2018-12-06T20:48:53.459Z,99.90
2018-12-06T20:51:19.994Z,99.90
2018-12-06T20:53:46.838Z,99.90
2018-12-06T20:56:13.681Z,99.90
2018-12-06T20:58:40.836Z,99.90
2018-12-06T21:01:07.675Z,99.90
2018-12-06T21:03:36.371Z,99.90
2018-12-06T21:06:03.078Z,99.90
2018-12-06T21:08:29.747Z,99.90
2018-12-06T21:10:56.277Z,99.90
2018-12-06T21:13:22.813Z,99.90
2018-12-06T21:15:49.349Z,99.90
2018-12-06T21:18:18.353Z,99.90
2018-12-06T21:20:45.186Z,99.90
2018-12-06T21:23:11.724Z,99.90
2018-12-06T21:25:38.258Z,99.90
2018-12-06T21:28:04.795Z,99.90
2018-12-06T21:30:31.334Z,99.90
2018-12-06T21:32:57.867Z,99.90
2018-12-06T21:35:24.404Z,99.90
2018-12-06T21:37:51.247Z,99.90
2018-12-06T21:40:17.792Z,99.90
2018-12-06T21:42:44.318Z,99.90
2018-12-06T21:45:10.857Z,99.90
2018-12-06T21:47:37.392Z,99.90
2018-12-06T21:50:04.857Z,99.90
2018-12-06T21:52:31.703Z,99.90
2018-12-06T21:54:58.229Z,99.90
2018-12-06T21:57:24.765Z,99.90
2018-12-06T21:59:51.300Z,99.90
2018-12-06T22:02:23.574Z,99.90
2018-12-06T22:04:50.209Z,99.90
2018-12-06T22:07:16.745Z,99.90
2018-12-06T22:09:43.281Z,99.90
2018-12-06T22:12:10.436Z,99.90
2018-12-06T22:14:37.275Z,99.90
2018-12-06T22:17:04.616Z,99.90
2018-12-06T22:19:31.269Z,99.90
2018-12-06T22:21:57.805Z,99.90
2018-12-06T22:24:24.958Z,99.90
2018-12-06T22:26:51.492Z,99.90
2018-12-06T22:29:18.029Z,99.90
2018-12-06T22:31:44.872Z,99.90
2018-12-06T22:34:11.407Z,99.90
2018-12-06T22:36:37.949Z,99.90
2018-12-06T22:39:06.630Z,99.90
2018-12-06T22:41:33.475Z,99.90
2018-12-06T22:44:00.010Z,99.90
2018-12-06T22:46:26.854Z,99.90
2018-12-06T22:48:53.389Z,99.90
2018-12-06T22:51:24.228Z,99.90
2018-12-06T22:53:48.920Z,99.90
2018-12-06T22:56:15.456Z,99.90
2018-12-06T22:58:48.753Z,99.90
2018-12-06T23:01:15.285Z,99.90
2018-12-06T23:03:41.825Z,99.90
2018-12-06T23:06:08.357Z,99.90
2018-12-06T23:08:34.893Z,99.90
2018-12-06T23:11:01.429Z,99.90
2018-12-06T23:13:27.966Z,99.90
2018-12-06T23:15:54.500Z,99.90
2018-12-06T23:18:21.038Z,99.90
2018-12-06T23:20:47.573Z,99.90
2018-12-06T23:23:14.111Z,99.90
2018-12-06T23:25:40.646Z,99.90
2018-12-06T23:28:07.488Z,99.90
2018-12-06T23:30:34.024Z,99.90
2018-12-06T23:33:00.561Z,99.90
2018-12-06T23:35:27.098Z,99.90
2018-12-06T23:37:53.634Z,99.90
2018-12-06T23:40:20.170Z,99.90
2018-12-06T23:42:46.709Z,99.90
2018-12-06T23:45:13.243Z,99.90
2018-12-06T23:47:40.087Z,99.90
2018-12-06T23:50:06.623Z,99.90
2018-12-06T23:52:33.466Z,99.90
2018-12-06T23:55:00.007Z,99.90
2018-12-06T23:57:26.848Z,99.90
2018-12-06T23:59:53.379Z,99.90
